createdAt,value
2018-02-07T00:01:29.433Z,100523.61
2018-02-07T00:03:56.991Z,100525.40
2018-02-07T00:06:24.594Z,100519.77
2018-02-07T00:08:52.169Z,100522.19
2018-02-07T00:11:19.840Z,100516.98
2018-02-07T00:13:47.412Z,100518.19
2018-02-07T00:16:14.973Z,100517.80
2018-02-07T00:18:42.546Z,100522.85
2018-02-07T00:21:10.162Z,100519.73
2018-02-07T00:23:37.726Z,100523.48
2018-02-07T00:26:05.347Z,100523.64
2018-02-07T00:28:32.958Z,100519.53
2018-02-07T00:31:00.579Z,100527.20
2018-02-07T00:33:28.137Z,100514.59
2018-02-07T00:35:55.709Z,100513.34
2018-02-07T00:38:23.326Z,100510.92
2018-02-07T00:40:50.952Z,100518.42
2018-02-07T00:43:18.520Z,100513.74
2018-02-07T00:45:46.146Z,100509.67
2018-02-07T00:48:13.713Z,100516.14
2018-02-07T00:50:41.287Z,100502.70
2018-02-07T00:53:08.862Z,100513.55
2018-02-07T00:55:36.465Z,100512.40
2018-02-07T00:58:04.046Z,100505.26
2018-02-07T01:00:31.609Z,100512.52
2018-02-07T01:02:59.293Z,100513.08
2018-02-07T01:05:26.863Z,100508.64
2018-02-07T01:07:54.406Z,100502.30
2018-02-07T01:10:21.974Z,100496.14
2018-02-07T01:12:49.598Z,100502.47
2018-02-07T01:15:17.184Z,100495.76
2018-02-07T01:17:44.764Z,100485.84
2018-02-07T01:20:12.382Z,100475.67
2018-02-07T01:22:39.958Z,100487.34
2018-02-07T01:25:07.525Z,100477.92
2018-02-07T01:27:35.094Z,100480.28
2018-02-07T01:30:02.701Z,100475.80
2018-02-07T01:32:30.330Z,100475.29
2018-02-07T01:34:57.898Z,100473.98
2018-02-07T01:37:25.530Z,100470.07
2018-02-07T01:39:53.151Z,100471.05
2018-02-07T01:42:20.774Z,100464.84
2018-02-07T01:44:48.345Z,100464.93
2018-02-07T01:47:15.909Z,100457.00
2018-02-07T01:49:43.539Z,100472.88
2018-02-07T01:52:11.101Z,100463.56
2018-02-07T01:54:38.731Z,100463.22
2018-02-07T01:57:06.375Z,100455.66
2018-02-07T01:59:34.042Z,100453.85
2018-02-07T02:02:01.687Z,100451.92
2018-02-07T02:04:29.254Z,100449.67
2018-02-07T02:06:56.835Z,100447.77
2018-02-07T02:09:24.401Z,100445.75
2018-02-07T02:11:52.017Z,100448.45
2018-02-07T02:14:19.644Z,100448.77
2018-02-07T02:16:47.266Z,100442.59
2018-02-07T02:19:14.874Z,100444.73
2018-02-07T02:21:42.499Z,100440.97
2018-02-07T02:24:10.134Z,100440.11
2018-02-07T02:26:37.767Z,100439.31
2018-02-07T02:29:05.405Z,100436.49
2018-02-07T02:31:32.974Z,100434.94
2018-02-07T02:34:00.598Z,100438.99
2018-02-07T02:36:41.047Z,100443.17
2018-02-07T02:39:08.632Z,100447.88
2018-02-07T02:41:36.214Z,100448.66
2018-02-07T02:44:03.780Z,100447.59
2018-02-07T02:46:31.404Z,100434.23
2018-02-07T02:48:59.001Z,100437.74
2018-02-07T02:51:26.631Z,100437.53
2018-02-07T02:53:54.306Z,100434.77
2018-02-07T02:56:21.943Z,100425.52
2018-02-07T02:58:49.631Z,100433.48
2018-02-07T03:01:17.202Z,100439.66
2018-02-07T03:03:44.770Z,100443.17
2018-02-07T03:06:12.361Z,100431.57
2018-02-07T03:08:39.921Z,100435.69
2018-02-07T03:11:07.539Z,100436.81
2018-02-07T03:13:35.174Z,100432.79
2018-02-07T03:16:02.820Z,100432.95
2018-02-07T03:18:30.402Z,100431.63
2018-02-07T03:20:58.033Z,100432.28
2018-02-07T03:23:25.716Z,100426.47
2018-02-07T03:25:53.285Z,100428.89
2018-02-07T03:28:20.857Z,100421.37
2018-02-07T03:30:48.483Z,100411.70
2018-02-07T03:33:16.049Z,100408.19
2018-02-07T03:35:43.617Z,100413.99
2018-02-07T03:38:11.317Z,100417.98
2018-02-07T03:40:38.944Z,100423.04
2018-02-07T03:43:06.514Z,100417.02
2018-02-07T03:45:34.086Z,100418.19
2018-02-07T03:48:01.646Z,100414.05
2018-02-07T03:50:29.227Z,100409.38
2018-02-07T03:52:56.810Z,100411.86
2018-02-07T03:55:24.373Z,100410.48
2018-02-07T03:57:51.999Z,100401.98
2018-02-07T04:00:19.611Z,100406.55
2018-02-07T04:02:47.298Z,100401.83
2018-02-07T04:05:14.867Z,100414.98
2018-02-07T04:07:42.495Z,100421.44
2018-02-07T04:10:10.130Z,100423.51
2018-02-07T04:12:37.702Z,100422.61
2018-02-07T04:15:05.325Z,100421.23
2018-02-07T04:17:32.976Z,100431.25
2018-02-07T04:20:00.612Z,100453.36
2018-02-07T04:22:28.252Z,100458.38
2018-02-07T04:24:55.918Z,100451.66
2018-02-07T04:27:23.499Z,100448.28
2018-02-07T04:29:51.065Z,100445.84
2018-02-07T04:32:18.681Z,100448.77
2018-02-07T04:34:46.262Z,100447.63
2018-02-07T04:37:13.905Z,100438.05
2018-02-07T04:39:41.495Z,100439.95
2018-02-07T04:42:09.066Z,100433.11
2018-02-07T04:44:36.644Z,100434.78
2018-02-07T04:47:04.211Z,100434.83
2018-02-07T04:49:31.871Z,100435.09
2018-02-07T04:51:59.426Z,100423.73
2018-02-07T04:54:26.999Z,100428.19
2018-02-07T04:56:54.642Z,100417.24
2018-02-07T04:59:22.210Z,100409.71
2018-02-07T05:01:49.795Z,100404.35
2018-02-07T05:04:17.375Z,100402.39
2018-02-07T05:06:45.057Z,100410.83
2018-02-07T05:09:12.626Z,100410.19
2018-02-07T05:11:40.200Z,100407.71
2018-02-07T05:14:07.779Z,100410.31
2018-02-07T05:16:35.358Z,100408.84
2018-02-07T05:19:02.930Z,100403.48
2018-02-07T05:21:30.493Z,100411.23
2018-02-07T05:23:58.113Z,100402.47
2018-02-07T05:26:25.735Z,100406.72
2018-02-07T05:28:53.362Z,100408.89
2018-02-07T05:31:20.986Z,100416.70
2018-02-07T05:33:48.548Z,100417.65
2018-02-07T05:36:16.175Z,100422.05
2018-02-07T05:38:43.799Z,100418.23
2018-02-07T05:41:11.425Z,100400.09
2018-02-07T05:43:39.000Z,100400.31
2018-02-07T05:46:06.556Z,100394.44
2018-02-07T05:48:34.126Z,100393.10
2018-02-07T05:51:01.747Z,100388.52
2018-02-07T05:53:29.314Z,100379.66
2018-02-07T05:55:56.886Z,100394.08
2018-02-07T05:58:24.563Z,100378.44
2018-02-07T06:00:52.177Z,100380.69
2018-02-07T06:03:19.801Z,100386.16
2018-02-07T06:05:47.374Z,100391.61
2018-02-07T06:08:14.949Z,100384.69
2018-02-07T06:10:42.530Z,100380.45
2018-02-07T06:13:10.172Z,100391.92
2018-02-07T06:15:37.854Z,100391.31
2018-02-07T06:18:05.441Z,100375.16
2018-02-07T06:20:33.014Z,100376.86
2018-02-07T06:23:00.571Z,100384.28
2018-02-07T06:25:28.200Z,100370.74
2018-02-07T06:27:55.774Z,100374.61
2018-02-07T06:30:23.389Z,100370.16
2018-02-07T06:32:51.080Z,100368.39
2018-02-07T06:35:18.712Z,100364.46
2018-02-07T06:37:46.342Z,100358.19
2018-02-07T06:40:13.915Z,100356.14
2018-02-07T06:42:41.477Z,100356.13
2018-02-07T06:45:09.069Z,100361.45
2018-02-07T06:47:36.643Z,100356.84
2018-02-07T06:50:04.265Z,100353.62
2018-02-07T06:52:31.902Z,100353.76
2018-02-07T06:54:59.516Z,100355.59
2018-02-07T06:57:27.094Z,100342.51
2018-02-07T06:59:54.665Z,100338.98
2018-02-07T07:02:22.306Z,100338.69
2018-02-07T07:04:49.954Z,100346.16
2018-02-07T07:07:17.578Z,100360.41
2018-02-07T07:09:45.214Z,100361.42
2018-02-07T07:12:12.823Z,100360.55
2018-02-07T07:14:40.398Z,100356.23
2018-02-07T07:17:08.026Z,100352.49
2018-02-07T07:19:35.669Z,100338.87
2018-02-07T07:22:03.233Z,100339.64
2018-02-07T07:24:30.858Z,100344.56
2018-02-07T07:26:58.487Z,100328.61
2018-02-07T07:29:26.053Z,100323.08
2018-02-07T07:31:53.643Z,100322.94
2018-02-07T07:34:21.219Z,100320.70
2018-02-07T07:36:48.866Z,100328.15
2018-02-07T07:39:16.447Z,100334.05
2018-02-07T07:41:44.073Z,100332.43
2018-02-07T07:44:11.712Z,100328.30
2018-02-07T07:46:39.357Z,100316.86
2018-02-07T07:49:06.948Z,100330.50
2018-02-07T07:51:34.518Z,100321.44
2018-02-07T07:54:02.094Z,100319.43
2018-02-07T07:56:29.722Z,100314.40
2018-02-07T07:58:57.345Z,100311.34
2018-02-07T08:01:24.929Z,100306.59
2018-02-07T08:03:52.554Z,100309.31
2018-02-07T08:06:20.130Z,100312.34
2018-02-07T08:08:47.758Z,100308.48
2018-02-07T08:11:15.398Z,100311.20
2018-02-07T08:13:42.962Z,100302.50
2018-02-07T08:16:10.580Z,100305.67
2018-02-07T08:18:38.154Z,100308.11
2018-02-07T08:21:05.788Z,100306.23
2018-02-07T08:23:33.367Z,100303.49
2018-02-07T08:26:00.946Z,100292.21
2018-02-07T08:28:28.582Z,100294.00
2018-02-07T08:30:56.215Z,100309.55
2018-02-07T08:33:23.830Z,100303.86
2018-02-07T08:35:51.386Z,100308.37
2018-02-07T08:38:18.957Z,100310.60
2018-02-07T08:40:46.548Z,100322.97
2018-02-07T08:43:14.123Z,100321.83
2018-02-07T08:45:41.694Z,100319.99
2018-02-07T08:48:09.358Z,100312.97
2018-02-07T08:50:36.982Z,100314.36
2018-02-07T08:53:04.565Z,100300.67
2018-02-07T08:55:32.220Z,100304.11
2018-02-07T08:57:59.806Z,100291.13
2018-02-07T09:00:27.365Z,100298.14
2018-02-07T09:02:54.950Z,100292.12
2018-02-07T09:05:22.528Z,100282.05
2018-02-07T09:07:50.206Z,100288.33
2018-02-07T09:10:17.846Z,100290.31
2018-02-07T09:12:45.415Z,100280.98
2018-02-07T09:15:12.991Z,100278.44
2018-02-07T09:17:40.654Z,100274.56
2018-02-07T09:20:08.369Z,100269.23
2018-02-07T09:22:36.028Z,100258.38
2018-02-07T09:25:03.602Z,100263.45
2018-02-07T09:27:31.257Z,100257.97
2018-02-07T09:29:58.908Z,100258.59
2018-02-07T09:32:26.526Z,100268.31
2018-02-07T09:34:54.106Z,100265.36
2018-02-07T09:37:21.687Z,100259.53
2018-02-07T09:39:49.285Z,100254.73
2018-02-07T09:42:16.854Z,100264.59
2018-02-07T09:44:44.472Z,100253.34
2018-02-07T09:47:12.107Z,100253.63
2018-02-07T09:49:39.804Z,100254.37
2018-02-07T09:52:07.380Z,100249.91
2018-02-07T09:54:34.960Z,100246.68
2018-02-07T09:57:02.604Z,100252.97
2018-02-07T09:59:30.234Z,100242.83
2018-02-07T10:01:57.855Z,100233.70
2018-02-07T10:04:25.481Z,100235.29
2018-02-07T10:06:53.071Z,100232.61
2018-02-07T10:09:20.645Z,100220.10
2018-02-07T10:11:48.231Z,100209.33
2018-02-07T10:14:15.865Z,100213.05
2018-02-07T10:16:43.508Z,100213.67
2018-02-07T10:19:11.139Z,100223.40
2018-02-07T10:21:38.715Z,100219.75
2018-02-07T10:24:06.328Z,100205.66
2018-02-07T10:26:33.891Z,100210.14
2018-02-07T10:29:01.454Z,100200.50
2018-02-07T10:31:29.168Z,100200.63
2018-02-07T10:33:56.802Z,100199.80
2018-02-07T10:36:24.361Z,100190.61
2018-02-07T10:38:51.977Z,100197.27
2018-02-07T10:41:19.606Z,100196.94
2018-02-07T10:43:47.259Z,100197.17
2018-02-07T10:46:14.830Z,100201.79
2018-02-07T10:48:42.485Z,100194.15
2018-02-07T10:51:10.075Z,100197.05
2018-02-07T10:53:37.646Z,100193.97
2018-02-07T10:56:05.213Z,100197.84
2018-02-07T10:58:32.857Z,100200.67
2018-02-07T11:01:00.498Z,100198.52
2018-02-07T11:03:28.094Z,100188.48
2018-02-07T11:05:55.660Z,100191.80
2018-02-07T11:08:23.247Z,100198.66
2018-02-07T11:10:50.814Z,100204.60
2018-02-07T11:13:18.501Z,100207.00
2018-02-07T11:15:46.137Z,100199.41
2018-02-07T11:18:13.687Z,100185.02
2018-02-07T11:20:41.313Z,100176.21
2018-02-07T11:23:08.889Z,100164.25
2018-02-07T11:25:36.463Z,100156.55
2018-02-07T11:28:04.085Z,100148.03
2018-02-07T11:30:31.795Z,100150.12
2018-02-07T11:32:59.419Z,100145.47
2018-02-07T11:35:27.005Z,100148.00
2018-02-07T11:37:54.578Z,100138.31
2018-02-07T11:40:22.123Z,100138.98
2018-02-07T11:42:49.700Z,100122.55
2018-02-07T11:45:17.284Z,100116.11
2018-02-07T11:47:51.642Z,100115.72
2018-02-07T11:50:19.215Z,100109.84
2018-02-07T11:52:46.805Z,100105.61
2018-02-07T11:55:14.405Z,100103.91
2018-02-07T11:57:42.051Z,100098.30
2018-02-07T12:00:09.736Z,100101.87
2018-02-07T12:02:37.366Z,100097.57
2018-02-07T12:05:05.050Z,100091.05
2018-02-07T12:07:32.617Z,100086.88
2018-02-07T12:10:00.244Z,100086.08
2018-02-07T12:12:27.974Z,100091.20
2018-02-07T12:14:55.520Z,100098.91
2018-02-07T12:17:23.111Z,100096.94
2018-02-07T12:19:50.738Z,100092.14
2018-02-07T12:22:18.433Z,100088.93
2018-02-07T12:24:45.999Z,100087.56
2018-02-07T12:27:13.552Z,100082.94
2018-02-07T12:29:41.177Z,100070.01
2018-02-07T12:32:08.750Z,100067.52
2018-02-07T12:34:36.339Z,100049.91
2018-02-07T12:37:03.951Z,100052.99
2018-02-07T12:39:31.727Z,100061.75
2018-02-07T12:41:59.354Z,100057.14
2018-02-07T12:44:26.926Z,100062.53
2018-02-07T12:46:54.562Z,100063.05
2018-02-07T12:49:22.138Z,100063.20
2018-02-07T12:51:49.713Z,100047.91
2018-02-07T12:54:17.288Z,100041.67
2018-02-07T12:56:44.973Z,100041.14
2018-02-07T12:59:12.598Z,100038.59
2018-02-07T13:01:40.170Z,100046.55
2018-02-07T13:04:07.750Z,100048.87
2018-02-07T13:06:36.224Z,100057.48
2018-02-07T13:09:03.904Z,100059.04
2018-02-07T13:11:31.601Z,100052.66
2018-02-07T13:13:59.240Z,100059.07
2018-02-07T13:16:26.801Z,100053.50
2018-02-07T13:18:54.450Z,100049.89
2018-02-07T13:21:22.027Z,100038.62
2018-02-07T13:23:49.589Z,100042.16
2018-02-07T13:26:17.147Z,100042.66
2018-02-07T13:28:44.778Z,100034.53
2018-02-07T13:31:12.538Z,100036.21
2018-02-07T13:33:40.161Z,100050.09
2018-02-07T13:36:07.741Z,100052.45
2018-02-07T13:38:35.384Z,100057.60
2018-02-07T13:41:02.956Z,100059.05
2018-02-07T13:43:30.538Z,100060.44
2018-02-07T13:45:58.150Z,100060.02
2018-02-07T13:48:25.774Z,100062.66
2018-02-07T13:50:53.351Z,100056.26
2018-02-07T13:53:20.983Z,100056.11
2018-02-07T13:55:48.561Z,100049.95
2018-02-07T13:58:16.201Z,100046.39
2018-02-07T14:00:49.389Z,100043.17
2018-02-07T14:03:17.031Z,100035.86
2018-02-07T14:05:44.664Z,100043.32
2018-02-07T14:08:12.302Z,100039.98
2018-02-07T14:10:39.931Z,100043.28
2018-02-07T14:13:07.577Z,100029.69
2018-02-07T14:15:35.168Z,100027.82
2018-02-07T14:18:02.744Z,100037.20
2018-02-07T14:20:30.310Z,100029.48
2018-02-07T14:22:57.930Z,100026.38
2018-02-07T14:25:25.499Z,100025.19
2018-02-07T14:27:53.055Z,100025.30
2018-02-07T14:30:20.648Z,100028.02
2018-02-07T14:32:48.213Z,100021.55
2018-02-07T14:35:15.862Z,100026.33
2018-02-07T14:37:43.426Z,100023.05
2018-02-07T14:40:11.112Z,100026.35
2018-02-07T14:42:38.692Z,100034.27
2018-02-07T14:45:06.276Z,100034.57
2018-02-07T14:47:33.879Z,100029.23
2018-02-07T14:50:01.451Z,100022.17
2018-02-07T14:52:29.036Z,100021.33
2018-02-07T14:54:56.662Z,100023.36
2018-02-07T14:57:24.282Z,100022.94
2018-02-07T14:59:51.906Z,100024.36
2018-02-07T15:02:19.470Z,100028.08
2018-02-07T15:04:47.051Z,100034.38
2018-02-07T15:07:14.694Z,100026.66
2018-02-07T15:09:42.340Z,100026.39
2018-02-07T15:12:09.906Z,100024.86
2018-02-07T15:14:37.533Z,100025.59
2018-02-07T15:17:05.111Z,100016.12
2018-02-07T15:19:32.757Z,100023.62
2018-02-07T15:22:00.339Z,100017.19
2018-02-07T15:24:27.976Z,100005.06
2018-02-07T15:26:55.589Z,100010.37
2018-02-07T15:29:23.187Z,100007.27
2018-02-07T15:31:50.802Z,99999.89
2018-02-07T15:34:18.369Z,99990.59
2018-02-07T15:36:45.990Z,99989.59
2018-02-07T15:39:13.561Z,100002.77
2018-02-07T15:41:41.142Z,100010.33
2018-02-07T15:44:08.936Z,100018.88
2018-02-07T15:46:36.570Z,100013.97
2018-02-07T15:49:04.289Z,99997.72
2018-02-07T15:51:31.857Z,100010.51
2018-02-07T15:53:59.479Z,100020.30
2018-02-07T15:56:27.031Z,100010.33
2018-02-07T15:58:54.602Z,100032.11
2018-02-07T16:01:22.252Z,100015.00
2018-02-07T16:03:49.839Z,100006.13
2018-02-07T16:06:18.352Z,99996.25
2018-02-07T16:08:45.917Z,99986.63
2018-02-07T16:11:13.486Z,99986.13
2018-02-07T16:13:41.067Z,99981.64
2018-02-07T16:16:08.679Z,99986.52
2018-02-07T16:18:36.321Z,99996.67
2018-02-07T16:21:03.980Z,99995.05
2018-02-07T16:23:31.607Z,99984.34
2018-02-07T16:25:59.244Z,99993.22
2018-02-07T16:28:26.821Z,100004.84
2018-02-07T16:30:54.420Z,99997.34
2018-02-07T16:33:21.991Z,99996.34
2018-02-07T16:35:49.580Z,100000.16
2018-02-07T16:38:17.319Z,99997.91
2018-02-07T16:40:44.929Z,99982.44
2018-02-07T16:43:12.489Z,99998.19
2018-02-07T16:45:40.229Z,99995.66
2018-02-07T16:48:07.810Z,99989.47
2018-02-07T16:50:35.378Z,99983.44
2018-02-07T16:53:03.014Z,99987.23
2018-02-07T16:55:30.638Z,99986.62
2018-02-07T16:57:58.277Z,99990.70
2018-02-07T17:00:25.905Z,99992.58
2018-02-07T17:02:53.467Z,99995.31
2018-02-07T17:05:21.038Z,99989.49
2018-02-07T17:07:48.663Z,99997.45
2018-02-07T17:10:16.294Z,99978.66
2018-02-07T17:12:43.865Z,99973.02
2018-02-07T17:15:11.539Z,99973.88
2018-02-07T17:17:39.105Z,99970.69
2018-02-07T17:20:06.678Z,99992.64
2018-02-07T17:22:34.322Z,99992.37
2018-02-07T17:25:01.948Z,99991.38
2018-02-07T17:27:29.563Z,99978.92
2018-02-07T17:29:57.615Z,99974.36
2018-02-07T17:32:25.189Z,99970.01
2018-02-07T17:34:52.815Z,99977.59
2018-02-07T17:37:20.389Z,99963.05
2018-02-07T17:39:48.014Z,99956.08
2018-02-07T17:42:16.334Z,99955.29
2018-02-07T17:44:43.990Z,99957.14
2018-02-07T17:47:11.614Z,99967.19
2018-02-07T17:49:39.181Z,99950.80
2018-02-07T17:52:06.799Z,99950.56
2018-02-07T17:54:34.376Z,99946.41
2018-02-07T17:57:01.951Z,99955.11
2018-02-07T17:59:29.582Z,99953.83
2018-02-07T18:01:57.203Z,99954.47
2018-02-07T18:04:24.854Z,99948.13
2018-02-07T18:06:52.483Z,99940.25
2018-02-07T18:09:20.127Z,99931.88
2018-02-07T18:11:47.702Z,99916.43
2018-02-07T18:14:15.346Z,99925.95
2018-02-07T18:16:42.979Z,99923.61
2018-02-07T18:19:10.544Z,99922.16
2018-02-07T18:21:38.162Z,99918.38
2018-02-07T18:24:05.722Z,99917.20
2018-02-07T18:26:33.289Z,99917.77
2018-02-07T18:29:00.889Z,99925.36
2018-02-07T18:31:28.533Z,99921.76
2018-02-07T18:33:56.119Z,99921.69
2018-02-07T18:36:23.660Z,99916.10
2018-02-07T18:38:51.268Z,99913.53
2018-02-07T18:41:18.845Z,99918.23
2018-02-07T18:43:46.395Z,99909.16
2018-02-07T18:46:14.038Z,99899.84
2018-02-07T18:48:41.593Z,99898.71
2018-02-07T18:51:09.167Z,99902.79
2018-02-07T18:53:36.730Z,99897.22
2018-02-07T18:56:04.357Z,99897.16
2018-02-07T18:58:31.932Z,99884.59
2018-02-07T19:00:59.505Z,99890.63
2018-02-07T19:03:27.120Z,99881.98
2018-02-07T19:05:54.691Z,99880.69
2018-02-07T19:08:22.264Z,99884.28
2018-02-07T19:10:49.867Z,99878.61
2018-02-07T19:13:17.483Z,99895.06
2018-02-07T19:15:45.055Z,99876.83
2018-02-07T19:18:12.679Z,99872.91
2018-02-07T19:20:40.261Z,99864.52
2018-02-07T19:23:07.831Z,99876.81
2018-02-07T19:25:35.418Z,99875.70
2018-02-07T19:28:02.987Z,99867.58
2018-02-07T19:30:30.679Z,99877.38
2018-02-07T19:32:58.303Z,99861.22
2018-02-07T19:35:25.894Z,99846.67
2018-02-07T19:37:53.576Z,99840.87
2018-02-07T19:40:21.206Z,99824.10
2018-02-07T19:42:48.819Z,99821.92
2018-02-07T19:45:16.372Z,99824.52
2018-02-07T19:47:44.045Z,99834.98
2018-02-07T19:50:11.729Z,99830.91
2018-02-07T19:52:39.306Z,99822.95
2018-02-07T19:55:06.940Z,99832.27
2018-02-07T19:57:34.493Z,99829.03
2018-02-07T20:00:02.069Z,99822.53
2018-02-07T20:02:29.619Z,99837.81
2018-02-07T20:04:57.327Z,99834.42
2018-02-07T20:07:24.901Z,99831.02
2018-02-07T20:09:52.528Z,99817.28
2018-02-07T20:12:20.176Z,99827.56
2018-02-07T20:14:47.746Z,99826.03
2018-02-07T20:17:15.379Z,99819.73
2018-02-07T20:19:42.942Z,99813.84
2018-02-07T20:22:10.688Z,99801.12
2018-02-07T20:24:38.261Z,99789.70
2018-02-07T20:27:05.850Z,99786.03
2018-02-07T20:29:33.425Z,99776.82
2018-02-07T20:32:01.067Z,99772.05
2018-02-07T20:34:28.649Z,99762.53
2018-02-07T20:36:56.208Z,99758.39
2018-02-07T20:39:23.830Z,99751.19
2018-02-07T20:41:51.429Z,99755.58
2018-02-07T20:44:19.129Z,99760.98
2018-02-07T20:46:46.753Z,99753.89
2018-02-07T20:49:14.317Z,99758.83
2018-02-07T20:51:41.886Z,99758.15
2018-02-07T20:54:09.423Z,99749.19
2018-02-07T20:56:37.035Z,99749.68
2018-02-07T20:59:04.580Z,99755.00
2018-02-07T21:01:32.149Z,99752.59
2018-02-07T21:03:59.783Z,99756.56
2018-02-07T21:06:27.343Z,99756.92
2018-02-07T21:08:54.914Z,99742.56
2018-02-07T21:11:22.551Z,99727.13
2018-02-07T21:13:50.262Z,99720.80
2018-02-07T21:16:17.820Z,99715.67
2018-02-07T21:18:45.381Z,99708.61
2018-02-07T21:21:12.950Z,99713.11
2018-02-07T21:23:40.510Z,99720.89
2018-02-07T21:26:08.139Z,99714.17
2018-02-07T21:28:35.702Z,99720.70
2018-02-07T21:31:03.363Z,99714.52
2018-02-07T21:33:30.994Z,99711.16
2018-02-07T21:35:58.554Z,99706.88
2018-02-07T21:38:26.117Z,99712.03
2018-02-07T21:40:53.738Z,99706.49
2018-02-07T21:43:21.319Z,99698.36
2018-02-07T21:45:48.877Z,99703.35
2018-02-07T21:48:16.537Z,99698.86
2018-02-07T21:50:44.110Z,99690.32
2018-02-07T21:53:11.662Z,99686.01
2018-02-07T21:55:39.237Z,99692.03
2018-02-07T21:58:06.807Z,99695.03
2018-02-07T22:00:34.378Z,99693.48
2018-02-07T22:03:01.952Z,99689.27
2018-02-07T22:05:29.673Z,99682.59
2018-02-07T22:07:57.234Z,99664.41
2018-02-07T22:10:24.794Z,99679.06
2018-02-07T22:12:52.362Z,99669.42
2018-02-07T22:15:19.923Z,99665.66
2018-02-07T22:17:47.487Z,99660.25
2018-02-07T22:20:15.046Z,99666.01
2018-02-07T22:22:42.654Z,99674.22
2018-02-07T22:25:10.211Z,99666.88
2018-02-07T22:27:37.769Z,99664.70
2018-02-07T22:30:05.431Z,99654.22
2018-02-07T22:32:33.052Z,99656.66
2018-02-07T22:35:00.696Z,99654.06
2018-02-07T22:37:28.257Z,99651.44
2018-02-07T22:39:55.879Z,99641.39
2018-02-07T22:42:23.494Z,99642.91
2018-02-07T22:44:51.134Z,99637.61
2018-02-07T22:47:18.766Z,99631.02
2018-02-07T22:49:46.329Z,99621.83
2018-02-07T22:52:13.899Z,99619.00
2018-02-07T22:54:41.461Z,99610.22
2018-02-07T22:57:09.137Z,99612.22
2018-02-07T22:59:36.702Z,99596.59
2018-02-07T23:02:04.262Z,99594.23
2018-02-07T23:04:31.880Z,99582.53
2018-02-07T23:06:59.438Z,99580.60
2018-02-07T23:09:27.058Z,99571.75
2018-02-07T23:11:54.670Z,99564.45
2018-02-07T23:14:22.343Z,99555.49
2018-02-07T23:16:49.902Z,99547.80
2018-02-07T23:19:17.470Z,99545.76
2018-02-07T23:21:45.106Z,99544.47
2018-02-07T23:24:12.726Z,99553.00
2018-02-07T23:26:40.417Z,99554.61
2018-02-07T23:29:07.973Z,99542.88
2018-02-07T23:31:35.586Z,99534.11
2018-02-07T23:34:03.145Z,99520.73
2018-02-07T23:36:30.757Z,99516.31
2018-02-07T23:38:58.380Z,99506.12
2018-02-07T23:41:25.934Z,99499.51
2018-02-07T23:43:53.562Z,99492.41
2018-02-07T23:46:21.192Z,99499.50
2018-02-07T23:48:48.880Z,99504.36
2018-02-07T23:51:16.448Z,99508.36
2018-02-07T23:53:44.103Z,99507.20
2018-02-07T23:56:11.688Z,99530.67
2018-02-07T23:58:39.249Z,99517.22
